Time;durP1;ratioP1;P1;durP2;ratioP2;P2;SDS_P1;SDS_P2;PMS_P1;PMS_P2;Temp;Humidity;BMP_temperature;BMP_pressure;BME280_temperature;BME280_humidity;BME280_pressure;Samples;Min_cycle;Max_cycle;Signal;HPM_P1;HPM_P2
2022/04/08 00:02:15;;;;;;;0.70;0.70;;;9.80;49.60;9.00;96779.00;;;;5035274;28;20235;-71
2022/04/08 00:04:42;;;;;;;0.70;0.70;;;9.70;50.40;9.00;96777.00;;;;5034972;28;20319;-71
2022/04/08 00:07:09;;;;;;;0.50;0.50;;;9.70;50.60;9.00;96788.00;;;;5034887;28;20223;-71
2022/04/08 00:09:35;;;;;;;0.93;0.87;;;9.70;51.30;8.90;96785.00;;;;5034674;28;20221;-71
2022/04/08 00:12:02;;;;;;;0.50;0.50;;;9.70;51.50;8.90;96770.00;;;;5034848;28;20267;-70
2022/04/08 00:14:28;;;;;;;3.10;1.53;;;9.60;51.70;8.90;96776.00;;;;5034603;28;20200;-70
2022/04/08 00:16:57;;;;;;;1.53;1.43;;;9.70;52.00;8.90;96704.00;;;;5034628;28;20204;-72
2022/04/08 00:19:24;;;;;;;0.50;0.50;;;9.60;52.50;9.00;96788.00;;;;5034662;28;20279;-71
2022/04/08 00:21:52;;;;;;;0.50;0.50;;;9.70;52.10;9.00;96793.00;;;;5017159;28;20644;-71
2022/04/08 00:24:19;;;;;;;0.50;0.50;;;9.60;52.80;8.90;96777.00;;;;5034484;28;20366;-71
2022/04/08 00:26:47;;;;;;;0.50;0.50;;;9.60;52.90;8.70;96776.00;;;;5034742;28;20220;-72
2022/04/08 00:29:16;;;;;;;0.60;0.60;;;9.50;53.80;8.80;96777.00;;;;5034477;28;20718;-71
2022/04/08 00:31:42;;;;;;;2.23;1.60;;;9.50;52.30;8.80;96768.00;;;;5034357;28;20656;-70
2022/04/08 00:34:09;;;;;;;0.83;0.83;;;9.50;51.40;8.90;96789.00;;;;5034624;28;20219;-71
2022/04/08 00:36:35;;;;;;;0.60;0.60;;;9.50;51.90;8.90;96776.00;;;;5034125;28;20314;-71
2022/04/08 00:39:02;;;;;;;0.50;0.50;;;9.60;51.40;8.90;96811.00;;;;5016270;28;20672;-70
2022/04/08 00:41:29;;;;;;;0.80;0.80;;;9.60;50.30;9.00;96788.00;;;;5034491;28;20213;-69
2022/04/08 00:43:55;;;;;;;0.83;0.83;;;9.60;50.80;8.90;96793.00;;;;5034270;28;20231;-70
2022/04/08 00:46:22;;;;;;;6.57;1.07;;;9.60;51.50;8.90;96791.00;;;;5034480;28;20644;-70
2022/04/08 00:48:48;;;;;;;0.60;0.60;;;9.60;51.10;8.90;96820.00;;;;5034372;28;20219;-72
2022/04/08 00:51:15;;;;;;;0.60;0.60;;;9.50;50.40;8.80;96807.00;;;;5034256;28;20668;-70
2022/04/08 00:53:45;;;;;;;0.50;0.50;;;9.60;50.90;8.90;96813.00;;;;5034271;28;20201;-70
2022/04/08 00:56:12;;;;;;;0.60;0.60;;;9.50;51.00;8.90;96822.00;;;;5016807;28;20193;-70
2022/04/08 00:58:39;;;;;;;1.00;1.00;;;9.50;50.80;8.90;96813.00;;;;5033968;28;20192;-70
2022/04/08 01:01:06;;;;;;;0.60;0.60;;;9.60;51.00;8.90;96821.00;;;;5033915;28;20334;-70
2022/04/08 01:03:33;;;;;;;0.57;0.57;;;9.60;49.10;8.90;96808.00;;;;5033884;28;20196;-71
2022/04/08 01:05:59;;;;;;;0.80;0.80;;;9.50;49.80;8.90;96828.00;;;;5033954;28;20315;-71
2022/04/08 01:08:26;;;;;;;0.60;0.60;;;9.50;49.60;8.80;96843.00;;;;5033782;28;20235;-70
2022/04/08 01:10:54;;;;;;;0.87;0.87;;;9.50;50.20;8.80;96824.00;;;;5033763;28;20238;-71
2022/04/08 01:13:21;;;;;;;0.80;0.80;;;9.50;50.10;8.80;96813.00;;;;5034045;28;20223;-70
2022/04/08 01:15:48;;;;;;;0.60;0.60;;;9.50;50.60;9.00;96832.00;;;;5033812;28;20283;-70
2022/04/08 01:18:15;;;;;;;0.60;0.60;;;9.60;51.10;8.80;96831.00;;;;5033847;28;20331;-70
2022/04/08 01:20:41;;;;;;;0.70;0.70;;;9.60;51.50;8.80;96825.00;;;;5034181;28;20287;-70
2022/04/08 01:23:08;;;;;;;2.43;1.27;;;9.50;52.60;8.80;96840.00;;;;5034469;28;20212;-71
2022/04/08 01:25:35;;;;;;;0.70;0.70;;;9.50;52.90;8.90;96839.00;;;;5036241;28;20203;-70
2022/04/08 01:28:01;;;;;;;0.60;0.60;;;9.50;52.70;8.80;96819.00;;;;5033916;28;20203;-71
2022/04/08 01:30:28;;;;;;;0.60;0.60;;;9.50;52.80;8.80;96822.00;;;;5034156;28;20224;-70
2022/04/08 01:32:54;;;;;;;0.80;0.80;;;9.40;51.60;8.70;96835.00;;;;5033730;28;20200;-70
2022/04/08 01:35:23;;;;;;;0.77;0.77;;;9.40;51.70;8.60;96822.00;;;;5033539;28;20200;-70
2022/04/08 01:37:52;;;;;;;1.17;1.17;;;9.30;51.80;8.70;96853.00;;;;5033359;28;20226;-70
2022/04/08 01:40:19;;;;;;;0.63;0.60;;;9.40;51.70;8.70;96868.00;;;;5033519;28;20199;-70
2022/04/08 01:42:46;;;;;;;0.70;0.70;;;9.30;52.30;8.70;96858.00;;;;5033457;28;20230;-70
2022/04/08 01:45:13;;;;;;;2.90;0.80;;;9.40;51.40;8.60;96862.00;;;;5033405;28;20206;-69
2022/04/08 01:47:39;;;;;;;3.83;1.17;;;9.40;51.50;8.70;96852.00;;;;5033342;28;20199;-70
2022/04/08 01:50:07;;;;;;;0.50;0.50;;;9.40;51.40;8.70;96863.00;;;;5036315;28;20224;-70
2022/04/08 01:52:35;;;;;;;0.57;0.57;;;9.40;51.50;8.60;96864.00;;;;5036877;28;20204;-70
2022/04/08 01:55:01;;;;;;;0.50;0.50;;;9.30;52.10;8.60;96873.00;;;;5036925;28;20207;-72
2022/04/08 01:57:29;;;;;;;0.60;0.60;;;9.30;53.70;8.50;96862.00;;;;5019580;28;20556;-70
2022/04/08 01:59:56;;;;;;;0.60;0.60;;;9.30;53.40;8.40;96870.00;;;;5036838;28;20500;-70
2022/04/08 02:02:23;;;;;;;0.80;0.80;;;9.20;53.90;8.50;96868.00;;;;5036738;28;20624;-70
2022/04/08 02:04:52;;;;;;;0.50;0.50;;;9.10;54.60;8.50;96886.00;;;;5036602;28;20378;-72
2022/04/08 02:07:18;;;;;;;0.70;0.70;;;9.20;53.40;8.40;96877.00;;;;5036762;28;20216;-70
2022/04/08 02:09:45;;;;;;;0.60;0.60;;;9.20;53.10;8.40;96889.00;;;;5019281;28;20218;-70
2022/04/08 02:12:12;;;;;;;0.50;0.50;;;9.20;53.80;8.50;96882.00;;;;5036569;28;20195;-71
2022/04/08 02:14:39;;;;;;;0.83;0.83;;;9.20;53.80;8.60;96888.00;;;;5036795;28;20341;-70
2022/04/08 02:17:06;;;;;;;0.50;0.50;;;9.20;53.70;8.50;96871.00;;;;5036710;28;20658;-71
2022/04/08 02:19:35;;;;;;;0.50;0.50;;;9.20;53.90;8.50;96869.00;;;;5036510;28;20193;-70
2022/04/08 02:22:03;;;;;;;0.70;0.70;;;9.20;52.60;8.50;96885.00;;;;5019195;28;20200;-70
2022/04/08 02:24:33;;;;;;;21.13;1.17;;;9.20;53.10;8.40;96869.00;;;;5036318;28;20681;-72
2022/04/08 02:27:00;;;;;;;0.50;0.50;;;9.10;53.10;8.40;96872.00;;;;5036337;28;20666;-70
2022/04/08 02:29:27;;;;;;;7.67;1.00;;;9.10;53.60;8.40;96883.00;;;;5036398;28;20270;-70
2022/04/08 02:31:56;;;;;;;0.53;0.53;;;9.20;53.30;8.20;96884.00;;;;5036347;28;20198;-70
2022/04/08 02:34:23;;;;;;;0.73;0.73;;;9.10;53.30;8.30;96890.00;;;;5036255;28;20227;-71
2022/04/08 02:36:50;;;;;;;0.60;0.60;;;9.00;53.00;8.40;96889.00;;;;5036122;28;20256;-71
2022/04/08 02:39:17;;;;;;;0.50;0.50;;;9.00;53.60;8.20;96892.00;;;;5018794;28;20554;-70
2022/04/08 02:41:43;;;;;;;0.57;0.57;;;8.90;53.70;8.20;96903.00;;;;5036379;28;20184;-70
2022/04/08 02:44:10;;;;;;;3.30;1.00;;;8.90;54.10;8.20;96897.00;;;;5036003;28;20220;-70
2022/04/08 02:46:39;;;;;;;1.27;1.27;;;8.90;54.50;8.20;96897.00;;;;5036264;28;20291;-72
2022/04/08 02:49:05;;;;;;;1.13;1.13;;;8.90;54.20;8.10;96897.00;;;;5035918;28;20229;-71
2022/04/08 02:51:33;;;;;;;0.80;0.80;;;8.80;54.30;8.10;96908.00;;;;5035972;28;20505;-71
2022/04/08 02:53:59;;;;;;;3.07;0.97;;;8.90;54.10;8.20;96908.00;;;;5035915;28;20237;-71
2022/04/08 02:56:28;;;;;;;0.60;0.60;;;8.90;52.90;8.10;96928.00;;;;5035886;28;20204;-71
2022/04/08 02:58:57;;;;;;;0.60;0.60;;;8.80;53.20;8.10;96928.00;;;;5036095;28;20235;-71
2022/04/08 03:01:25;;;;;;;0.50;0.50;;;8.80;52.90;8.10;96924.00;;;;5035237;28;20227;-72
2022/04/08 03:03:52;;;;;;;0.73;0.73;;;8.80;52.80;8.10;96926.00;;;;5035703;28;20314;-71
2022/04/08 03:06:18;;;;;;;0.60;0.60;;;8.70;53.30;7.90;96908.00;;;;5018223;28;20293;-70
2022/04/08 03:08:48;;;;;;;0.70;0.70;;;8.80;53.20;8.00;96913.00;;;;5035595;28;20257;-71
2022/04/08 03:11:14;;;;;;;0.53;0.53;;;8.70;53.70;7.90;96911.00;;;;5035606;28;20216;-70
2022/04/08 03:13:43;;;;;;;1.87;1.77;;;8.70;54.20;7.90;96916.00;;;;5035687;28;20624;-71
2022/04/08 03:16:10;;;;;;;0.60;0.60;;;8.60;54.80;8.00;96919.00;;;;5035540;28;20201;-71
2022/04/08 03:18:37;;;;;;;0.80;0.80;;;8.70;54.80;7.80;96926.00;;;;5035687;28;20301;-70
2022/04/08 03:21:03;;;;;;;0.50;0.50;;;8.60;55.10;8.00;96920.00;;;;5018089;28;20584;-71
2022/04/08 03:23:30;;;;;;;0.50;0.50;;;8.60;55.30;8.00;96928.00;;;;5035370;28;20573;-71
2022/04/08 03:25:57;;;;;;;0.67;0.67;;;8.60;54.70;7.90;96928.00;;;;5035448;28;20207;-70
2022/04/08 03:28:24;;;;;;;4.03;0.97;;;8.70;54.30;7.90;96931.00;;;;5035373;28;20246;-71
2022/04/08 03:30:50;;;;;;;0.53;0.53;;;8.60;53.60;7.90;96932.00;;;;5035263;28;20319;-71
2022/04/08 03:33:16;;;;;;;0.70;0.70;;;8.60;53.60;8.00;96933.00;;;;5035310;28;20242;-71
2022/04/08 03:35:43;;;;;;;1.00;1.00;;;8.70;52.50;8.00;96916.00;;;;5035623;28;20196;-71
2022/04/08 03:38:12;;;;;;;0.60;0.60;;;8.60;52.80;8.00;96931.00;;;;5035548;28;20663;-71
2022/04/08 03:40:38;;;;;;;0.57;0.57;;;8.70;53.10;8.00;96935.00;;;;5035524;28;20265;-71
2022/04/08 03:43:06;;;;;;;4.90;1.23;;;8.70;52.40;8.00;96936.00;;;;5034725;28;20605;-71
2022/04/08 03:45:32;;;;;;;0.57;0.57;;;8.70;51.90;7.90;96933.00;;;;5035224;28;20208;-71
2022/04/08 03:47:59;;;;;;;0.60;0.60;;;8.60;52.70;7.80;96940.00;;;;5035358;28;20290;-71
2022/04/08 03:50:26;;;;;;;0.50;0.50;;;8.60;52.60;7.90;96940.00;;;;5035070;28;20320;-72
2022/04/08 03:52:52;;;;;;;1.83;1.73;;;8.60;51.90;7.80;96954.00;;;;5035080;28;20205;-71
2022/04/08 03:55:19;;;;;;;0.87;0.87;;;8.50;51.50;7.80;96935.00;;;;5034989;28;20196;-71
2022/04/08 03:57:46;;;;;;;0.47;0.47;;;8.50;51.70;7.80;96934.00;;;;5034921;28;20320;-71
2022/04/08 04:00:15;;;;;;;0.60;0.60;;;8.50;51.30;7.80;96942.00;;;;5035048;28;20193;-71
2022/04/08 04:02:41;;;;;;;0.70;0.70;;;8.50;51.70;7.90;96934.00;;;;5035321;28;20259;-71
2022/04/08 04:05:10;;;;;;;0.60;0.60;;;8.50;52.10;7.90;96942.00;;;;5035000;28;20197;-72
2022/04/08 04:07:38;;;;;;;0.60;0.60;;;8.60;51.20;7.80;96946.00;;;;5034819;28;20207;-71
2022/04/08 04:10:06;;;;;;;0.73;0.73;;;8.60;51.30;7.80;96940.00;;;;5034594;28;20235;-71
2022/04/08 04:12:33;;;;;;;1.20;1.20;;;8.50;50.90;7.80;96938.00;;;;5033611;28;20196;-70
2022/04/08 04:15:04;;;;;;;1.70;0.63;;;8.50;50.20;7.80;96940.00;;;;5034680;28;20198;-72
2022/04/08 04:17:34;;;;;;;0.60;0.60;;;8.50;49.90;7.70;96954.00;;;;5017191;28;20233;-71
2022/04/08 04:20:00;;;;;;;0.97;0.97;;;8.40;50.00;7.70;96956.00;;;;5017430;28;20211;-70
2022/04/08 04:22:27;;;;;;;0.50;0.50;;;8.50;49.70;7.70;96944.00;;;;5034555;28;20228;-72
2022/04/08 04:24:53;;;;;;;0.50;0.50;;;8.40;50.40;7.70;96943.00;;;;5034406;28;20195;-71
2022/04/08 04:27:20;;;;;;;0.60;0.60;;;8.40;50.90;7.70;96942.00;;;;5034334;28;20654;-72
2022/04/08 04:29:48;;;;;;;0.50;0.50;;;8.40;50.90;7.70;96934.00;;;;5034497;28;20258;-71
2022/04/08 04:32:17;;;;;;;0.50;0.50;;;8.40;51.30;7.70;96943.00;;;;5034507;28;20189;-71
2022/04/08 04:34:49;;;;;;;0.53;0.53;;;8.40;52.00;7.60;96940.00;;;;5173071;27;20748;-70
2022/04/08 04:37:16;;;;;;;0.60;0.60;;;8.40;52.50;7.90;96932.00;;;;5151944;27;20682;-71
2022/04/08 04:39:43;;;;;;;0.50;0.50;;;8.40;52.80;7.80;96935.00;;;;5152190;27;20276;-71
2022/04/08 04:42:09;;;;;;;0.93;0.93;;;8.50;52.70;7.50;96926.00;;;;5152169;27;20191;-71
2022/04/08 04:44:38;;;;;;;0.80;0.80;;;8.30;53.50;7.70;96925.00;;;;5151975;27;20199;-71
2022/04/08 04:47:06;;;;;;;0.67;0.67;;;8.30;53.80;7.60;96932.00;;;;5152071;27;20635;-71
2022/04/08 04:49:32;;;;;;;0.47;0.47;;;8.30;54.30;7.60;96931.00;;;;5152148;27;20686;-71
2022/04/08 04:51:59;;;;;;;0.50;0.50;;;8.30;54.50;7.60;96929.00;;;;5151677;27;20223;-71
2022/04/08 04:54:26;;;;;;;0.50;0.50;;;8.20;54.90;7.50;96933.00;;;;5151559;27;20345;-71
2022/04/08 04:56:52;;;;;;;0.70;0.70;;;8.20;55.40;7.60;96936.00;;;;5151976;27;20224;-71
2022/04/08 04:59:19;;;;;;;0.90;0.90;;;8.30;55.30;7.60;96943.00;;;;5151976;27;20199;-70
2022/04/08 05:01:45;;;;;;;0.60;0.60;;;8.30;55.40;7.70;96942.00;;;;5151837;27;20191;-70
2022/04/08 05:04:12;;;;;;;0.87;0.87;;;8.30;55.40;7.60;96947.00;;;;5151534;27;20674;-71
2022/04/08 05:06:38;;;;;;;0.60;0.60;;;8.30;55.90;7.50;96939.00;;;;5151540;27;20506;-70
2022/04/08 05:09:08;;;;;;;11.23;1.20;;;8.30;55.80;7.40;96941.00;;;;5151505;27;20194;-70
2022/04/08 05:11:36;;;;;;;0.57;0.57;;;8.20;56.50;7.50;96945.00;;;;5133297;27;20656;-70
2022/04/08 05:14:03;;;;;;;0.60;0.60;;;8.20;56.20;7.60;96949.00;;;;5151403;27;20276;-70
2022/04/08 05:16:32;;;;;;;0.70;0.70;;;8.30;55.90;7.40;96948.00;;;;5133158;27;20555;-71
2022/04/08 05:18:59;;;;;;;0.50;0.50;;;8.20;56.50;7.50;96940.00;;;;5151522;27;20201;-70
2022/04/08 05:21:29;;;;;;;0.50;0.50;;;8.20;56.70;7.60;96956.00;;;;5151440;27;20216;-72
2022/04/08 05:23:55;;;;;;;0.60;0.60;;;8.20;56.40;7.60;96960.00;;;;5151374;27;20212;-71
2022/04/08 05:26:23;;;;;;;0.67;0.67;;;8.30;56.20;7.60;96958.00;;;;5152011;27;20204;-71
2022/04/08 05:28:49;;;;;;;0.50;0.50;;;8.30;55.60;7.60;96963.00;;;;5151364;27;20208;-70
2022/04/08 05:31:15;;;;;;;0.60;0.60;;;8.30;55.50;7.70;96962.00;;;;5151223;27;20228;-70
2022/04/08 05:33:42;;;;;;;0.67;0.67;;;8.30;55.50;8.00;96968.00;;;;5151189;27;20268;-70
2022/04/08 05:36:08;;;;;;;1.00;1.00;;;8.50;54.80;7.80;96963.00;;;;5151289;27;20259;-70
2022/04/08 05:38:35;;;;;;;0.60;0.60;;;8.50;55.00;7.80;96968.00;;;;5151289;27;20712;-70
2022/04/08 05:41:01;;;;;;;0.90;0.90;;;8.50;55.20;7.80;96971.00;;;;5151888;27;20249;-70
2022/04/08 05:43:29;;;;;;;0.80;0.80;;;8.50;55.60;7.90;96976.00;;;;5151509;27;20220;-70
2022/04/08 05:45:55;;;;;;;0.60;0.60;;;8.60;54.60;7.90;96986.00;;;;5140384;27;20269;-72
2022/04/08 05:48:22;;;;;;;1.40;1.27;;;8.60;54.20;8.00;96973.00;;;;5137384;28;20524;-72
2022/04/08 05:50:48;;;;;;;0.80;0.80;;;8.60;54.30;8.00;96984.00;;;;5119178;28;20214;-72
2022/04/08 05:53:17;;;;;;;0.60;0.60;;;8.60;54.50;8.00;96970.00;;;;5137167;28;20663;-71
2022/04/08 05:55:45;;;;;;;1.17;1.10;;;8.60;54.60;8.10;96976.00;;;;5136971;28;20203;-71
2022/04/08 05:58:14;;;;;;;0.83;0.83;;;8.70;54.70;8.00;96980.00;;;;5119133;28;20526;-71
2022/04/08 06:00:41;;;;;;;0.60;0.60;;;8.70;55.10;7.90;96990.00;;;;5118913;28;20580;-71
2022/04/08 06:03:08;;;;;;;0.60;0.60;;;8.60;55.50;8.00;96971.00;;;;5136842;28;20221;-71
2022/04/08 06:05:35;;;;;;;0.80;0.80;;;8.70;55.80;7.90;96971.00;;;;5136947;28;20188;-69
2022/04/08 06:08:02;;;;;;;0.60;0.60;;;8.70;56.50;7.90;96962.00;;;;5136810;28;20236;-71
2022/04/08 06:10:28;;;;;;;1.23;1.13;;;8.60;57.90;8.00;96959.00;;;;5136769;28;20217;-72
2022/04/08 06:12:56;;;;;;;0.57;0.57;;;8.60;58.70;8.10;96956.00;;;;5136648;28;20252;-70
2022/04/08 06:15:24;;;;;;;0.70;0.70;;;8.70;57.90;8.10;96955.00;;;;5136742;28;20280;-71
2022/04/08 06:17:54;;;;;;;0.70;0.70;;;8.70;56.70;8.20;96958.00;;;;5136711;28;20276;-71
2022/04/08 06:20:23;;;;;;;4.13;1.07;;;8.80;57.60;8.00;96961.00;;;;5136590;28;20197;-70
2022/04/08 06:22:50;;;;;;;0.60;0.60;;;8.70;55.70;7.90;96958.00;;;;5136501;28;20256;-70
2022/04/08 06:25:19;;;;;;;0.60;0.60;;;8.60;56.50;7.90;96952.00;;;;5136517;28;20310;-71
2022/04/08 06:27:55;;;;;;;0.60;0.60;;;8.60;53.90;7.90;96945.00;;;;5136409;28;20262;-71
2022/04/08 06:30:22;;;;;;;1.03;1.03;;;8.60;54.00;7.80;96943.00;;;;5136433;28;20212;-71
2022/04/08 06:32:49;;;;;;;0.50;0.50;;;8.50;54.00;7.80;96936.00;;;;5136188;28;20201;-71
2022/04/08 06:35:16;;;;;;;0.60;0.60;;;8.50;54.40;7.70;96944.00;;;;5136433;28;20247;-71
2022/04/08 06:37:43;;;;;;;0.53;0.53;;;8.40;54.30;7.80;96955.00;;;;5136421;28;20249;-71
2022/04/08 06:40:12;;;;;;;0.73;0.73;;;8.40;55.00;7.80;96950.00;;;;5136343;28;20625;-72
2022/04/08 06:42:39;;;;;;;0.60;0.60;;;8.40;56.30;7.90;96948.00;;;;5136422;28;20276;-69
2022/04/08 06:45:09;;;;;;;0.53;0.53;;;8.60;56.80;8.20;96946.00;;;;5118360;28;20489;-71
2022/04/08 06:47:48;;;;;;;0.60;0.60;;;8.70;56.80;8.00;96948.00;;;;5136126;28;20684;-71
2022/04/08 06:50:16;;;;;;;1.13;1.13;;;8.60;56.80;8.00;96946.00;;;;5136179;28;20196;-71
2022/04/08 06:52:43;;;;;;;0.60;0.60;;;8.60;58.30;7.90;96937.00;;;;5117850;28;20204;-70
2022/04/08 06:55:10;;;;;;;7.67;1.60;;;8.60;59.30;7.70;96939.00;;;;5136102;28;20204;-70
2022/04/08 06:57:37;;;;;;;1.13;0.97;;;8.50;60.20;7.80;96944.00;;;;5134835;27;20216;-69
2022/04/08 07:00:06;;;;;;;0.50;0.50;;;8.50;60.80;7.80;96945.00;;;;5135817;28;20224;-70
2022/04/08 07:02:33;;;;;;;0.60;0.60;;;8.50;61.10;7.90;96937.00;;;;5135976;28;20688;-70
2022/04/08 07:04:59;;;;;;;0.67;0.67;;;8.60;61.10;7.90;96920.00;;;;5135890;28;20201;-70
2022/04/08 07:07:31;;;;;;;0.50;0.50;;;8.60;61.60;8.00;96929.00;;;;5135645;28;20248;-71
2022/04/08 07:09:58;;;;;;;0.50;0.50;;;8.60;62.90;7.80;96923.00;;;;5135809;28;20615;-70
2022/04/08 07:12:25;;;;;;;0.80;0.80;;;8.60;61.20;7.70;96930.00;;;;5135639;28;20545;-70
2022/04/08 07:14:52;;;;;;;0.50;0.50;;;8.50;62.10;7.60;96933.00;;;;5117794;28;20583;-71
2022/04/08 07:17:28;;;;;;;1.13;1.03;;;8.40;63.60;7.50;96893.00;;;;5135647;28;20219;-70
2022/04/08 07:19:56;;;;;;;1.33;1.30;;;8.20;61.80;7.20;96910.00;;;;5135610;28;20304;-72
2022/04/08 07:22:23;;;;;;;0.60;0.60;;;8.10;64.60;7.10;96916.00;;;;5117529;28;20208;-71
2022/04/08 07:24:51;;;;;;;0.60;0.60;;;8.00;66.40;7.00;96900.00;;;;5135635;28;20243;-71
2022/04/08 07:27:21;;;;;;;0.60;0.60;;;7.80;68.30;7.10;96904.00;;;;5135540;28;20208;-73
2022/04/08 07:29:51;;;;;;;0.83;0.83;;;7.80;68.20;7.00;96906.00;;;;5117512;28;20200;-70
2022/04/08 07:32:21;;;;;;;0.97;0.97;;;7.80;68.80;7.00;96902.00;;;;5135379;28;20349;-70
2022/04/08 07:34:49;;;;;;;1.30;1.00;;;7.70;69.70;7.20;96910.00;;;;5117224;28;20672;-70
2022/04/08 07:37:16;;;;;;;0.57;0.57;;;7.90;70.40;7.10;96893.00;;;;5135335;28;20260;-71
2022/04/08 07:39:43;;;;;;;1.00;0.80;;;7.90;70.00;7.00;96887.00;;;;5135283;28;20226;-70
2022/04/08 07:42:11;;;;;;;0.60;0.60;;;7.70;71.20;7.00;96889.00;;;;5135282;28;20195;-70
2022/04/08 07:44:38;;;;;;;0.53;0.53;;;7.70;71.20;7.00;96895.00;;;;5135094;28;20283;-69
2022/04/08 07:47:05;;;;;;;0.50;0.50;;;7.70;71.20;7.10;96891.00;;;;5135344;28;20244;-70
2022/04/08 07:49:31;;;;;;;0.60;0.60;;;7.80;72.40;6.80;96893.00;;;;5135179;28;20752;-70
2022/04/08 07:52:00;;;;;;;0.90;0.90;;;7.60;73.80;6.80;96868.00;;;;5117028;28;20266;-71
2022/04/08 07:54:29;;;;;;;0.50;0.50;;;7.50;75.50;6.80;96862.00;;;;5135087;28;20217;-70
2022/04/08 07:56:56;;;;;;;0.50;0.50;;;7.50;75.60;6.90;96872.00;;;;5117084;28;20294;-70
2022/04/08 07:59:23;;;;;;;0.50;0.50;;;7.60;76.60;6.80;96871.00;;;;5134999;28;20215;-70
2022/04/08 08:01:50;;;;;;;0.50;0.50;;;7.60;78.90;7.00;96862.00;;;;5134976;28;20206;-71
2022/04/08 08:04:17;;;;;;;0.60;0.60;;;7.70;78.50;6.90;96858.00;;;;5134876;28;20197;-70
2022/04/08 08:06:43;;;;;;;0.50;0.50;;;7.60;76.00;6.90;96854.00;;;;5135023;28;20196;-71
2022/04/08 08:09:10;;;;;;;0.53;0.53;;;7.60;77.40;7.30;96857.00;;;;5134505;27;20236;-71
2022/04/08 08:11:36;;;;;;;0.60;0.60;;;7.90;78.80;7.20;96831.00;;;;5135028;28;20232;-71
2022/04/08 08:14:06;;;;;;;0.53;0.53;;;7.80;76.80;7.20;96844.00;;;;5134838;28;20269;-70
2022/04/08 08:16:34;;;;;;;0.70;0.70;;;7.90;77.40;7.40;96838.00;;;;5134814;28;20258;-71
2022/04/08 08:19:01;;;;;;;0.60;0.60;;;8.00;75.60;7.10;96836.00;;;;5134747;28;20299;-70
2022/04/08 08:21:27;;;;;;;0.50;0.50;;;7.90;76.00;7.50;96830.00;;;;5134937;28;20351;-71
2022/04/08 08:23:54;;;;;;;0.70;0.70;;;8.10;76.60;7.50;96835.00;;;;5116615;28;20573;-71
2022/04/08 08:26:21;;;;;;;0.50;0.50;;;8.10;76.30;7.30;96826.00;;;;5134731;28;20636;-71
2022/04/08 08:28:50;;;;;;;0.30;0.30;;;8.10;76.60;7.40;96826.00;;;;5136359;28;20207;-71
2022/04/08 08:31:19;;;;;;;0.60;0.60;;;8.10;78.00;7.70;96831.00;;;;5134644;28;20227;-74
2022/04/08 08:33:46;;;;;;;0.60;0.60;;;8.20;77.70;7.90;96822.00;;;;5134798;28;20208;-70
2022/04/08 08:36:13;;;;;;;0.50;0.50;;;8.40;76.90;7.90;96824.00;;;;5134793;28;20187;-71
2022/04/08 08:38:39;;;;;;;0.50;0.50;;;8.50;76.20;7.80;96822.00;;;;5134464;28;20308;-70
2022/04/08 08:41:08;;;;;;;0.60;0.60;;;8.50;76.40;7.70;96813.00;;;;5134503;28;20280;-70
2022/04/08 08:43:36;;;;;;;0.60;0.60;;;8.40;75.40;7.40;96823.00;;;;5134598;28;20232;-70
2022/04/08 08:46:05;;;;;;;0.50;0.50;;;8.20;77.20;7.50;96813.00;;;;5116629;28;20204;-70
2022/04/08 08:48:35;;;;;;;0.70;0.70;;;8.30;79.60;7.60;96808.00;;;;5116603;28;20200;-71
2022/04/08 08:51:05;;;;;;;0.50;0.50;;;8.40;80.50;7.80;96802.00;;;;5116192;28;20225;-71
2022/04/08 08:53:34;;;;;;;0.60;0.60;;;8.40;80.80;7.70;96814.00;;;;5116217;28;20262;-71
2022/04/08 08:56:01;;;;;;;0.40;0.40;;;8.40;79.80;7.80;96783.00;;;;5134294;28;20272;-72
2022/04/08 08:58:29;;;;;;;0.50;0.50;;;8.40;79.90;7.50;96797.00;;;;5134498;28;20221;-71
2022/04/08 09:00:58;;;;;;;0.60;0.60;;;8.30;79.10;7.70;96788.00;;;;5134747;28;20202;-71
2022/04/08 09:03:29;;;;;;;0.50;0.50;;;8.40;81.20;7.60;96782.00;;;;5134259;28;20242;-71
2022/04/08 09:06:06;;;;;;;1.23;1.23;;;8.30;80.80;7.70;96784.00;;;;5116275;28;20262;-71
2022/04/08 09:08:34;;;;;;;0.40;0.40;;;8.30;79.40;7.70;96757.00;;;;5134602;28;20203;-71
2022/04/08 09:11:04;;;;;;;0.57;0.57;;;8.40;80.00;8.00;96781.00;;;;5134289;28;20237;-71
2022/04/08 09:13:41;;;;;;;0.60;0.60;;;8.50;81.40;8.00;96769.00;;;;5134094;28;20651;-72
2022/04/08 09:16:10;;;;;;;0.50;0.50;;;8.50;81.70;7.80;96771.00;;;;5115955;28;20228;-71
2022/04/08 09:18:41;;;;;;;0.80;0.80;;;8.50;81.80;7.90;96756.00;;;;5116125;28;20213;-70
2022/04/08 09:21:09;;;;;;;0.60;0.60;;;8.50;82.10;7.90;96759.00;;;;5136840;28;20216;-69
2022/04/08 09:23:36;;;;;;;0.50;0.50;;;8.60;82.10;8.00;96746.00;;;;5137876;28;20217;-70
2022/04/08 09:26:04;;;;;;;0.53;0.53;;;8.60;78.90;7.70;96735.00;;;;5137555;28;20205;-69
2022/04/08 09:28:36;;;;;;;0.60;0.60;;;8.50;77.40;7.80;96734.00;;;;5137444;28;20185;-70
2022/04/08 09:31:04;;;;;;;0.60;0.60;;;8.50;80.00;7.70;96714.00;;;;5137559;28;20236;-71
2022/04/08 09:33:32;;;;;;;0.50;0.50;;;8.40;80.10;7.60;96701.00;;;;5137478;28;20221;-71
2022/04/08 09:35:59;;;;;;;0.50;0.50;;;8.40;80.70;7.60;96708.00;;;;5137385;28;20221;-70
2022/04/08 09:38:31;;;;;;;1.13;1.13;;;8.40;80.00;7.60;96707.00;;;;5137349;28;20211;-72
2022/04/08 09:41:03;;;;;;;0.40;0.40;;;8.30;81.00;7.80;96697.00;;;;5137611;28;20581;-70
2022/04/08 09:43:36;;;;;;;0.57;0.57;;;8.40;81.80;7.90;96695.00;;;;5140204;28;20178;-69
2022/04/08 09:46:14;;;;;;;0.40;0.40;;;8.50;83.80;7.60;96687.00;;;;5119264;28;20545;-70
2022/04/08 09:48:41;;;;;;;0.63;0.63;;;8.40;84.90;7.50;96687.00;;;;5119217;28;20236;-70
2022/04/08 09:51:10;;;;;;;0.70;0.70;;;8.30;84.10;7.50;96691.00;;;;5137280;28;20201;-71
2022/04/08 09:53:38;;;;;;;0.47;0.47;;;8.30;84.90;7.40;96681.00;;;;5140819;28;20239;-72
2022/04/08 09:56:15;;;;;;;0.50;0.50;;;8.20;85.70;7.30;96672.00;;;;5137404;28;20280;-71
2022/04/08 09:58:51;;;;;;;1.10;1.00;;;8.10;87.40;7.10;96665.00;;;;5137219;28;20201;-71
2022/04/08 10:01:17;;;;;;;1.03;1.03;;;7.90;87.40;7.30;96658.00;;;;5136909;28;20221;-71
2022/04/08 10:03:45;;;;;;;0.60;0.60;;;8.00;87.90;7.30;96645.00;;;;5137046;28;20608;-72
2022/04/08 10:06:12;;;;;;;0.60;0.60;;;8.00;85.00;7.00;96634.00;;;;5136946;28;20212;-71
2022/04/08 10:08:41;;;;;;;0.80;0.80;;;7.70;83.40;7.10;96626.00;;;;5136803;28;20304;-70
2022/04/08 10:11:18;;;;;;;0.70;0.70;;;7.70;82.10;7.10;96614.00;;;;5118781;28;20524;-71
2022/04/08 10:14:04;;;;;;;0.50;0.50;;;7.80;82.40;7.30;96596.00;;;;5136764;28;20302;-71
2022/04/08 10:16:32;;;;;;;0.60;0.60;;;7.90;82.60;7.30;96611.00;;;;5137189;28;20280;-71
2022/04/08 10:19:04;;;;;;;0.40;0.40;;;8.00;82.70;7.60;96617.00;;;;5137056;28;20524;-71
2022/04/08 10:21:38;;;;;;;0.60;0.60;;;8.10;81.60;7.60;96609.00;;;;5136516;28;20225;-71
2022/04/08 10:24:10;;;;;;;0.53;0.53;;;8.20;81.10;7.70;96597.00;;;;5118535;28;20186;-73
2022/04/08 10:26:56;;;;;;;0.67;0.67;;;8.30;82.30;8.00;96595.00;;;;5118523;28;20393;-72
2022/04/08 10:29:23;;;;;;;0.57;0.57;;;8.50;83.10;7.40;96587.00;;;;5136481;28;20220;-73
2022/04/08 10:31:58;;;;;;;0.60;0.60;;;8.50;83.60;8.00;96585.00;;;;5136493;27;20196;-70
2022/04/08 10:34:26;;;;;;;0.70;0.70;;;8.60;85.60;8.00;96580.00;;;;5118553;28;20246;-71
2022/04/08 10:36:53;;;;;;;0.50;0.50;;;8.60;87.40;8.00;96573.00;;;;5136385;28;20255;-70
2022/04/08 10:39:23;;;;;;;0.90;0.90;;;8.70;86.60;8.20;96565.00;;;;5136302;28;20282;-71
2022/04/08 10:41:53;;;;;;;0.50;0.50;;;8.70;87.60;8.30;96559.00;;;;5136276;28;20759;-71
2022/04/08 10:44:33;;;;;;;0.50;0.50;;;8.90;89.50;8.40;96543.00;;;;5136304;28;20250;-71
2022/04/08 10:47:03;;;;;;;0.67;0.67;;;8.90;89.70;8.40;96552.00;;;;5136203;28;20764;-71
2022/04/08 10:49:32;;;;;;;0.60;0.60;;;8.90;89.60;8.50;96550.00;;;;5136461;28;20193;-71
2022/04/08 10:52:00;;;;;;;0.60;0.60;;;9.00;90.30;8.40;96544.00;;;;5118202;28;20580;-72
2022/04/08 10:54:37;;;;;;;0.50;0.50;;;9.00;90.00;8.30;96517.00;;;;5135954;28;20236;-71
2022/04/08 10:57:04;;;;;;;0.57;0.57;;;8.90;91.20;8.30;96525.00;;;;5118164;28;20199;-71
2022/04/08 10:59:30;;;;;;;0.53;0.53;;;9.00;90.90;8.40;96518.00;;;;5136085;28;20240;-72
2022/04/08 11:02:05;;;;;;;0.70;0.70;;;9.00;91.20;8.50;96473.00;;;;5136055;28;20350;-71
2022/04/08 11:04:34;;;;;;;0.57;0.57;;;9.00;91.30;8.50;96508.00;;;;5135973;28;20513;-72
2022/04/08 11:07:06;;;;;;;0.60;0.60;;;9.00;87.00;8.50;96501.00;;;;5135807;28;20514;-72
2022/04/08 11:09:35;;;;;;;0.50;0.50;;;9.00;85.10;8.60;96470.00;;;;5135931;28;20201;-72
2022/04/08 11:12:03;;;;;;;0.50;0.50;;;9.00;85.20;8.50;96491.00;;;;5135828;28;20216;-71
2022/04/08 11:14:30;;;;;;;0.60;0.60;;;9.00;83.60;8.60;96488.00;;;;5135779;28;20667;-72